Almak — UCEL — position and weather

sailwx.info

Track history (hours):
 
Tides and Currents Weather Stations Pressure Air Temp Water Temp Dewpoint Dewpoint Depression Visibility Wind Speed Wind Dir Waves Ship Positions

Almak

Last reported at 2017-Mar-22 18:16 UTC. Time now 2017-Mar-24 06:09 UTC.
Position N 68°42' E 012°49'.

Length 42 m; draft 6.5 m.

Type: Fishing. MMSI: 273317270.

Date/timePositionNaut miles runAvg speedWind from/ knotsBaromVisibWave heightAir tempDewpointWater temp
2017-Mar-22 18:16N 68°42' E 012°49'3 4.0
2017-Mar-22 17:33N 68°41' E 012°42'4 4.0
2017-Mar-22 16:33N 68°38' E 012°35'4 4.2
2017-Mar-22 15:33N 68°35' E 012°27'2 2.5
2017-Mar-22 14:33N 68°34' E 012°33'2 2.5
2017-Mar-22 13:33N 68°32' E 012°37'3 2.6
2017-Mar-22 12:33N 68°35' E 012°35'3 3.4
2017-Mar-22 11:33N 68°36' E 012°26'4 3.8
2017-Mar-22 10:33N 68°35' E 012°16'4 4.0
2017-Mar-22 09:33N 68°34' E 012°06'0 0.2
2017-Mar-22 08:33N 68°34' E 012°06'9 9.3
2017-Mar-22 07:33N 68°39' E 012°28'3 3.1
2017-Mar-22 06:33N 68°39' E 012°37'1 0.6
2017-Mar-22 05:33N 68°39' E 012°36'4 4.0
2017-Mar-22 04:33N 68°37' E 012°26'4 4.1
2017-Mar-22 03:33N 68°35' E 012°16'4 4.1
2017-Mar-22 02:33N 68°32' E 012°08'4 4.0
2017-Mar-22 01:33N 68°30' E 012°01'3 2.6
2017-Mar-22 00:33N 68°31' E 012°07'4 3.6
2017-Mar-21 23:33N 68°34' E 012°13'3 3.4
2017-Mar-21 22:33N 68°36' E 012°19'3 3.0
2017-Mar-21 21:33N 68°37' E 012°27'3 3.2
2017-Mar-21 20:33N 68°38' E 012°35'3 3.3
2017-Mar-21 19:33N 68°40' E 012°43'6 5.5
2017-Mar-21 18:33N 68°44' E 012°52'4 3.6
2017-Mar-21 17:33N 68°42' E 012°45'4 4.0
2017-Mar-21 16:33N 68°40' E 012°36'4 4.1
2017-Mar-21 15:33N 68°38' E 012°26'4 4.2
2017-Mar-21 14:33N 68°37' E 012°15'3 3.1
2017-Mar-21 13:33N 68°35' E 012°07'8 7.9
2017-Mar-21 12:34N 68°39' E 012°27'4 3.6
2017-Mar-21 11:33N 68°37' E 012°18'4 4.1
2017-Mar-21 10:33N 68°35' E 012°09'4 3.8
2017-Mar-21 09:33N 68°31' E 012°03'3 3.3
2017-Mar-21 08:33N 68°28' E 012°07'3 3.1
2017-Mar-21 07:33N 68°25' E 012°06'4 4.2
2017-Mar-21 06:33N 68°21' E 012°08'4 3.9
2017-Mar-21 05:33N 68°17' E 012°12'4 3.8
2017-Mar-21 04:33N 68°14' E 012°11'1 0.5
2017-Mar-21 03:33N 68°13' E 012°12'2 2.3
2017-Mar-21 02:33N 68°15' E 012°11'2 1.9
2017-Mar-21 01:33N 68°17' E 012°10'2 2.0
2017-Mar-21 00:33N 68°19' E 012°07'2 2.4
2017-Mar-20 23:33N 68°21' E 012°06'2 1.7
2017-Mar-20 22:33N 68°23' E 012°06'2 1.7
2017-Mar-20 21:33N 68°25' E 012°06'2 2.1
2017-Mar-20 20:33N 68°27' E 012°05'2 2.5
2017-Mar-20 19:33N 68°29' E 012°08'2 2.2
2017-Mar-20 18:33N 68°27' E 012°10'4 3.9
2017-Mar-20 17:33N 68°23' E 012°14'4 4.2
2017-Mar-20 16:33N 68°19' E 012°17'5 5.1
2017-Mar-20 15:33N 68°15' E 012°26'0 0.3
2017-Mar-20 14:33N 68°15' E 012°27'1 1.1
2017-Mar-20 13:33N 68°16' E 012°27'1 0.8
2017-Mar-20 12:33N 68°17' E 012°26'1 1.1
2017-Mar-20 11:33N 68°18' E 012°26'1 1.0
2017-Mar-20 10:33N 68°19' E 012°26'1 1.3
2017-Mar-20 09:33N 68°21' E 012°27'2 1.7
2017-Mar-20 08:33N 68°22' E 012°28'2 1.6
2017-Mar-20 07:33N 68°24' E 012°29'1 1.5
2017-Mar-20 06:33N 68°25' E 012°32'1 1.3
2017-Mar-20 05:33N 68°25' E 012°36'1 0.9
2017-Mar-20 04:33N 68°25' E 012°33'1 0.9
2017-Mar-20 03:33N 68°25' E 012°31'1 0.8
2017-Mar-20 02:33N 68°25' E 012°28'1 0.7
2017-Mar-20 01:33N 68°25' E 012°27'0 0.4
2017-Mar-20 00:33N 68°26' E 012°26'1 0.6
2017-Mar-19 23:33N 68°26' E 012°24'1 1.3
2017-Mar-19 22:33N 68°27' E 012°22'3 2.7
2017-Mar-19 21:33N 68°26' E 012°14'4 3.7
2017-Mar-19 20:33N 68°28' E 012°05'3 3.4
2017-Mar-19 19:33N 68°26' E 012°13'2 2.2
2017-Mar-19 18:33N 68°25' E 012°09'3 3.2
2017-Mar-19 17:33N 68°28' E 012°06'3 3.1
2017-Mar-19 16:33N 68°31' E 012°07'2 2.2
2017-Mar-19 15:33N 68°33' E 012°10'4 4.3
2017-Mar-19 14:33N 68°29' E 012°06'6 6.4
2017-Mar-19 13:33N 68°22' E 012°10'6 6.1
2017-Mar-19 12:33N 68°19' E 012°25'2 2.1
2017-Mar-19 11:33N 68°17' E 012°23'4 3.5
2017-Mar-19 10:33N 68°20' E 012°18'4 3.7
2017-Mar-19 09:33N 68°24' E 012°13'3 3.0
2017-Mar-19 08:33N 68°26' E 012°09'2 1.6
2017-Mar-19 07:33N 68°28' E 012°08'4 3.7
2017-Mar-19 06:33N 68°24' E 012°10'4 3.7
2017-Mar-19 05:33N 68°21' E 012°15'0 0.1
2017-Mar-19 03:24N 68°21' E 012°15'5 5.7
2017-Mar-19 02:31N 68°26' E 012°09'4 4.0
2017-Mar-19 01:33N 68°29' E 012°07'3 3.2
2017-Mar-19 00:33N 68°26' E 012°10'4 3.5
2017-Mar-18 23:31N 68°23' E 012°15'1 0.6
2017-Mar-18 22:19N 68°22' E 012°14'3 1.5
2017-Mar-18 20:33N 68°20' E 012°18'2 2.4
2017-Mar-18 19:33N 68°18' E 012°17'3 3.3
2017-Mar-18 18:33N 68°15' E 012°12'3 3.5
2017-Mar-18 17:33N 68°12' E 012°09'8 7.8
2017-Mar-18 16:33N 68°06' E 011°57'4 4.3
2017-Mar-18 15:33N 68°02' E 011°49'2 2.1
2017-Mar-18 14:33N 68°04' E 011°51'3 3.4
2017-Mar-18 13:33N 68°08' E 011°49'4 3.9
2017-Mar-18 12:33N 68°11' E 011°43'7 6.9
2017-Mar-18 11:33N 68°12' E 011°25'3 3.0
2017-Mar-18 10:33N 68°10' E 011°30'3 2.5
2017-Mar-18 09:33N 68°07' E 011°29'4 3.8
2017-Mar-18 08:33N 68°11' E 011°30'4 3.6
2017-Mar-18 07:33N 68°14' E 011°35'4 3.8
2017-Mar-18 06:33N 68°18' E 011°37'4 3.8
2017-Mar-18 05:34N 68°16' E 011°28'2 2.0
2017-Mar-18 04:34N 68°14' E 011°27'2 1.9
2017-Mar-18 03:33N 68°12' E 011°25'2 2.4
2017-Mar-18 02:33N 68°14' E 011°30'4 3.7
2017-Mar-18 01:33N 68°16' E 011°39'4 3.7
2017-Mar-18 00:33N 68°20' E 011°41'3 3.1
2017-Mar-17 23:33N 68°22' E 011°35'4 3.7
2017-Mar-17 22:33N 68°20' E 011°26'4 3.9
2017-Mar-17 21:33N 68°18' E 011°18'6 6.0
2017-Mar-17 20:33N 68°14' E 011°04'5 4.8
2017-Mar-17 19:33N 68°10' E 010°57'2 1.9
2017-Mar-17 18:33N 68°09' E 010°55'2 1.7
2017-Mar-17 17:33N 68°07' E 010°53'1 1.4
2017-Mar-17 16:34N 68°06' E 010°52'2 1.6
2017-Mar-17 15:33N 68°04' E 010°52'2 2.2
2017-Mar-17 14:33N 68°02' E 010°52'2 2.1
2017-Mar-17 13:33N 67°60' E 010°51'2 2.1
2017-Mar-17 12:33N 67°58' E 010°50'2 1.7
2017-Mar-17 11:33N 67°56' E 010°49'2 1.9
2017-Mar-17 10:33N 67°54' E 010°49'3 0.9
2017-Mar-17 07:22N 67°54' E 010°42'3 3.4
2017-Mar-17 06:33N 67°56' E 010°43'3 3.3
2017-Mar-17 05:33N 67°59' E 010°46'2 2.1
2017-Mar-17 04:33N 68°01' E 010°48'3 3.2
2017-Mar-17 03:33N 67°58' E 010°45'78 2.5
2017-Mar-15 20:26N 67°53' E 014°12'90 9.7
2017-Mar-15 11:10N 68°56' E 017°05'1011.1
2017-Mar-15 10:17N 69°04' E 017°22'811.0
2017-Mar-15 09:33N 69°08' E 017°42'8 8.2
2017-Mar-15 08:33N 69°14' E 017°57'1010.2
2017-Mar-15 07:33N 69°24' E 018°06'11 9.8
2017-Mar-15 06:29N 69°31' E 018°27'1111.8
2017-Mar-15 05:34N 69°37' E 018°54'3 3.1
2017-Mar-15 04:34N 69°39' E 018°58'0 0.0
2017-Mar-15 03:34N 69°39' E 018°58'0 0.0
2017-Mar-15 02:34N 69°39' E 018°58'0 0.0
2017-Mar-15 01:33N 69°39' E 018°58'0 0.0
2017-Mar-15 00:34N 69°39' E 018°58'0 0.0
2017-Mar-14 23:34N 69°39' E 018°58'0 0.0
2017-Mar-14 22:34N 69°39' E 018°58'0 0.0
2017-Mar-14 21:33N 69°39' E 018°58'0 0.0
2017-Mar-14 20:34N 69°39' E 018°58'0 0.0
2017-Mar-14 19:34N 69°39' E 018°58'0 0.0
2017-Mar-14 18:33N 69°39' E 018°58'0 0.0
2017-Mar-14 17:34N 69°39' E 018°58'0 0.0
2017-Mar-14 16:33N 69°39' E 018°58'0 0.0
2017-Mar-14 15:33N 69°39' E 018°58'  
Track history (hours):
 
Tides and Currents Weather Stations Pressure Air Temp Water Temp Dewpoint Dewpoint Depression Visibility Wind Speed Wind Dir Waves Ship Positions

Almak

Last reported at 2017-Mar-22 18:16 UTC. Time now 2017-Mar-24 06:09 UTC.
Position N 68°42' E 012°49'.

Length 42 m; draft 6.5 m.

Type: Fishing. MMSI: 273317270.

Date/timePositionNaut miles runAvg speedWind from/ knotsBaromVisibWave heightAir tempDewpointWater temp
2017-Mar-22 18:16N 68°42' E 012°49'3 4.0
2017-Mar-22 17:33N 68°41' E 012°42'4 4.0
2017-Mar-22 16:33N 68°38' E 012°35'4 4.2
2017-Mar-22 15:33N 68°35' E 012°27'2 2.5
2017-Mar-22 14:33N 68°34' E 012°33'2 2.5
2017-Mar-22 13:33N 68°32' E 012°37'3 2.6
2017-Mar-22 12:33N 68°35' E 012°35'3 3.4
2017-Mar-22 11:33N 68°36' E 012°26'4 3.8
2017-Mar-22 10:33N 68°35' E 012°16'4 4.0
2017-Mar-22 09:33N 68°34' E 012°06'0 0.2
2017-Mar-22 08:33N 68°34' E 012°06'9 9.3
2017-Mar-22 07:33N 68°39' E 012°28'3 3.1
2017-Mar-22 06:33N 68°39' E 012°37'1 0.6
2017-Mar-22 05:33N 68°39' E 012°36'4 4.0
2017-Mar-22 04:33N 68°37' E 012°26'4 4.1
2017-Mar-22 03:33N 68°35' E 012°16'4 4.1
2017-Mar-22 02:33N 68°32' E 012°08'4 4.0
2017-Mar-22 01:33N 68°30' E 012°01'3 2.6
2017-Mar-22 00:33N 68°31' E 012°07'4 3.6
2017-Mar-21 23:33N 68°34' E 012°13'3 3.4
2017-Mar-21 22:33N 68°36' E 012°19'3 3.0
2017-Mar-21 21:33N 68°37' E 012°27'3 3.2
2017-Mar-21 20:33N 68°38' E 012°35'3 3.3
2017-Mar-21 19:33N 68°40' E 012°43'6 5.5
2017-Mar-21 18:33N 68°44' E 012°52'4 3.6
2017-Mar-21 17:33N 68°42' E 012°45'4 4.0
2017-Mar-21 16:33N 68°40' E 012°36'4 4.1
2017-Mar-21 15:33N 68°38' E 012°26'4 4.2
2017-Mar-21 14:33N 68°37' E 012°15'3 3.1
2017-Mar-21 13:33N 68°35' E 012°07'8 7.9
2017-Mar-21 12:34N 68°39' E 012°27'4 3.6
2017-Mar-21 11:33N 68°37' E 012°18'4 4.1
2017-Mar-21 10:33N 68°35' E 012°09'4 3.8
2017-Mar-21 09:33N 68°31' E 012°03'3 3.3
2017-Mar-21 08:33N 68°28' E 012°07'3 3.1
2017-Mar-21 07:33N 68°25' E 012°06'4 4.2
2017-Mar-21 06:33N 68°21' E 012°08'4 3.9
2017-Mar-21 05:33N 68°17' E 012°12'4 3.8
2017-Mar-21 04:33N 68°14' E 012°11'1 0.5
2017-Mar-21 03:33N 68°13' E 012°12'2 2.3
2017-Mar-21 02:33N 68°15' E 012°11'2 1.9
2017-Mar-21 01:33N 68°17' E 012°10'2 2.0
2017-Mar-21 00:33N 68°19' E 012°07'2 2.4
2017-Mar-20 23:33N 68°21' E 012°06'2 1.7
2017-Mar-20 22:33N 68°23' E 012°06'2 1.7
2017-Mar-20 21:33N 68°25' E 012°06'2 2.1
2017-Mar-20 20:33N 68°27' E 012°05'2 2.5
2017-Mar-20 19:33N 68°29' E 012°08'2 2.2
2017-Mar-20 18:33N 68°27' E 012°10'4 3.9
2017-Mar-20 17:33N 68°23' E 012°14'4 4.2
2017-Mar-20 16:33N 68°19' E 012°17'5 5.1
2017-Mar-20 15:33N 68°15' E 012°26'0 0.3
2017-Mar-20 14:33N 68°15' E 012°27'1 1.1
2017-Mar-20 13:33N 68°16' E 012°27'1 0.8
2017-Mar-20 12:33N 68°17' E 012°26'1 1.1
2017-Mar-20 11:33N 68°18' E 012°26'1 1.0
2017-Mar-20 10:33N 68°19' E 012°26'1 1.3
2017-Mar-20 09:33N 68°21' E 012°27'2 1.7
2017-Mar-20 08:33N 68°22' E 012°28'2 1.6
2017-Mar-20 07:33N 68°24' E 012°29'1 1.5
2017-Mar-20 06:33N 68°25' E 012°32'1 1.3
2017-Mar-20 05:33N 68°25' E 012°36'1 0.9
2017-Mar-20 04:33N 68°25' E 012°33'1 0.9
2017-Mar-20 03:33N 68°25' E 012°31'1 0.8
2017-Mar-20 02:33N 68°25' E 012°28'1 0.7
2017-Mar-20 01:33N 68°25' E 012°27'0 0.4
2017-Mar-20 00:33N 68°26' E 012°26'1 0.6
2017-Mar-19 23:33N 68°26' E 012°24'1 1.3
2017-Mar-19 22:33N 68°27' E 012°22'3 2.7
2017-Mar-19 21:33N 68°26' E 012°14'4 3.7
2017-Mar-19 20:33N 68°28' E 012°05'3 3.4
2017-Mar-19 19:33N 68°26' E 012°13'2 2.2
2017-Mar-19 18:33N 68°25' E 012°09'3 3.2
2017-Mar-19 17:33N 68°28' E 012°06'3 3.1
2017-Mar-19 16:33N 68°31' E 012°07'2 2.2
2017-Mar-19 15:33N 68°33' E 012°10'4 4.3
2017-Mar-19 14:33N 68°29' E 012°06'6 6.4
2017-Mar-19 13:33N 68°22' E 012°10'6 6.1
2017-Mar-19 12:33N 68°19' E 012°25'2 2.1
2017-Mar-19 11:33N 68°17' E 012°23'4 3.5
2017-Mar-19 10:33N 68°20' E 012°18'4 3.7
2017-Mar-19 09:33N 68°24' E 012°13'3 3.0
2017-Mar-19 08:33N 68°26' E 012°09'2 1.6
2017-Mar-19 07:33N 68°28' E 012°08'4 3.7
2017-Mar-19 06:33N 68°24' E 012°10'4 3.7
2017-Mar-19 05:33N 68°21' E 012°15'0 0.1
2017-Mar-19 03:24N 68°21' E 012°15'5 5.7
2017-Mar-19 02:31N 68°26' E 012°09'4 4.0
2017-Mar-19 01:33N 68°29' E 012°07'3 3.2
2017-Mar-19 00:33N 68°26' E 012°10'4 3.5
2017-Mar-18 23:31N 68°23' E 012°15'1 0.6
2017-Mar-18 22:19N 68°22' E 012°14'3 1.5
2017-Mar-18 20:33N 68°20' E 012°18'2 2.4
2017-Mar-18 19:33N 68°18' E 012°17'3 3.3
2017-Mar-18 18:33N 68°15' E 012°12'3 3.5
2017-Mar-18 17:33N 68°12' E 012°09'8 7.8
2017-Mar-18 16:33N 68°06' E 011°57'4 4.3
2017-Mar-18 15:33N 68°02' E 011°49'2 2.1
2017-Mar-18 14:33N 68°04' E 011°51'3 3.4
2017-Mar-18 13:33N 68°08' E 011°49'4 3.9
2017-Mar-18 12:33N 68°11' E 011°43'7 6.9
2017-Mar-18 11:33N 68°12' E 011°25'3 3.0
2017-Mar-18 10:33N 68°10' E 011°30'3 2.5
2017-Mar-18 09:33N 68°07' E 011°29'4 3.8
2017-Mar-18 08:33N 68°11' E 011°30'4 3.6
2017-Mar-18 07:33N 68°14' E 011°35'4 3.8
2017-Mar-18 06:33N 68°18' E 011°37'4 3.8
2017-Mar-18 05:34N 68°16' E 011°28'2 2.0
2017-Mar-18 04:34N 68°14' E 011°27'2 1.9
2017-Mar-18 03:33N 68°12' E 011°25'2 2.4
2017-Mar-18 02:33N 68°14' E 011°30'4 3.7
2017-Mar-18 01:33N 68°16' E 011°39'4 3.7
2017-Mar-18 00:33N 68°20' E 011°41'3 3.1
2017-Mar-17 23:33N 68°22' E 011°35'4 3.7
2017-Mar-17 22:33N 68°20' E 011°26'4 3.9
2017-Mar-17 21:33N 68°18' E 011°18'6 6.0
2017-Mar-17 20:33N 68°14' E 011°04'5 4.8
2017-Mar-17 19:33N 68°10' E 010°57'2 1.9
2017-Mar-17 18:33N 68°09' E 010°55'2 1.7
2017-Mar-17 17:33N 68°07' E 010°53'1 1.4
2017-Mar-17 16:34N 68°06' E 010°52'2 1.6
2017-Mar-17 15:33N 68°04' E 010°52'2 2.2
2017-Mar-17 14:33N 68°02' E 010°52'2 2.1
2017-Mar-17 13:33N 67°60' E 010°51'2 2.1
2017-Mar-17 12:33N 67°58' E 010°50'2 1.7
2017-Mar-17 11:33N 67°56' E 010°49'2 1.9
2017-Mar-17 10:33N 67°54' E 010°49'3 0.9
2017-Mar-17 07:22N 67°54' E 010°42'3 3.4
2017-Mar-17 06:33N 67°56' E 010°43'3 3.3
2017-Mar-17 05:33N 67°59' E 010°46'2 2.1
2017-Mar-17 04:33N 68°01' E 010°48'3 3.2
2017-Mar-17 03:33N 67°58' E 010°45'78 2.5
2017-Mar-15 20:26N 67°53' E 014°12'90 9.7
2017-Mar-15 11:10N 68°56' E 017°05'1011.1
2017-Mar-15 10:17N 69°04' E 017°22'811.0
2017-Mar-15 09:33N 69°08' E 017°42'8 8.2
2017-Mar-15 08:33N 69°14' E 017°57'1010.2
2017-Mar-15 07:33N 69°24' E 018°06'11 9.8
2017-Mar-15 06:29N 69°31' E 018°27'1111.8
2017-Mar-15 05:34N 69°37' E 018°54'3 3.1
2017-Mar-15 04:34N 69°39' E 018°58'0 0.0
2017-Mar-15 03:34N 69°39' E 018°58'0 0.0
2017-Mar-15 02:34N 69°39' E 018°58'0 0.0
2017-Mar-15 01:33N 69°39' E 018°58'0 0.0
2017-Mar-15 00:34N 69°39' E 018°58'0 0.0
2017-Mar-14 23:34N 69°39' E 018°58'0 0.0
2017-Mar-14 22:34N 69°39' E 018°58'0 0.0
2017-Mar-14 21:33N 69°39' E 018°58'0 0.0
2017-Mar-14 20:34N 69°39' E 018°58'0 0.0
2017-Mar-14 19:34N 69°39' E 018°58'0 0.0
2017-Mar-14 18:33N 69°39' E 018°58'0 0.0
2017-Mar-14 17:34N 69°39' E 018°58'0 0.0
2017-Mar-14 16:33N 69°39' E 018°58'0 0.0
2017-Mar-14 15:33N 69°39' E 018°58'  

Dump ship's entire track history